AIGUAFREDA





Hora UTC 05:35
Temperatura 3.0 ºC
Suelo 15 cm 1.8 ºC
Humedad 94.7 %
Presión 1014.7 hPa
Pluja 0.0 mm
Velocidad viento 0.7 km/h
Dirección viento SE
Radiación solar 0.0 W/m²

Datos diarios 2022-12-01



Hora UTC (invierno +1h; verano +2h)
Temperatura (ºC) Humedad (%) Presión (hPa) Velocidad viento (km/h) Precipitación (mm) Radiación solar (W/m²)
Hora UTC Aire Suelo 15 cm Humedad Presión Vel. Dir. Vel. Max Dir. Intent. máx 5 min. Rad. Sol.
00:05 4.8 3.7 90.4 1015.4 0.0 SE 0.0 SE 0.0 0.0
00:10 4.8 3.9 90.4 1015.4 0.7 SE 3.4 SE 0.0 0.0
00:15 4.8 3.9 90.4 1015.3 0.0 NNE 0.0 SE 0.0 0.0
00:20 4.8 3.8 90.3 1015.3 0.0 NNE 0.0 SW 0.0 0.0
00:25 4.8 3.6 90.2 1015.3 0.8 NNW 6.1 WNW 0.0 0.0
00:30 4.7 3.6 90.2 1015.2 0.0 NNE 0.0 N 0.0 0.0
00:35 4.6 3.3 89.9 1015.2 0.1 E 3.4 E 0.0 0.0
00:40 4.3 2.9 90.2 1015.2 0.0 NNE 0.0 E 0.0 0.0
00:45 4.2 2.6 90.8 1015.1 0.1 N 3.4 N 0.0 0.0
00:50 4.0 2.4 91.1 1015.1 0.2 N 3.4 N 0.0 0.0
00:55 3.9 2.1 91.3 1015.1 0.0 NNE 0.0 N 0.0 0.0
01:00 3.7 1.9 91.5 1015.0 0.0 NNE 0.0 N 0.0 0.0
01:05 3.6 1.7 92.3 1015.1 0.0 NNE 0.0 NW 0.0 0.0
01:10 3.5 1.7 92.5 1015.1 0.0 NNE 0.0 NW 0.0 0.0
01:15 3.4 1.5 92.6 1015.1 0.0 NNE 0.0 NW 0.0 0.0
01:20 3.3 1.4 92.9 1015.1 0.0 NNE 0.0 NW 0.0 0.0
01:25 3.2 1.4 93.3 1015.1 0.1 N 3.4 N 0.0 0.0
01:30 3.1 1.4 93.2 1015.1 0.2 N 3.4 N 0.0 0.0
01:35 3.0 1.1 93.1 1015.1 0.1 SSE 3.4 SSE 0.0 0.0
01:40 2.9 1.0 93.5 1015.2 0.0 NNE 0.0 SSE 0.0 0.0
01:45 2.9 0.9 93.8 1015.2 0.1 ENE 3.4 SSE 0.0 0.0
01:50 2.7 0.8 93.8 1015.1 0.0 NNE 0.0 ENE 0.0 0.0
01:55 2.7 0.7 93.9 1015.1 0.0 NNE 0.0 ENE 0.0 0.0
02:00 2.6 0.8 94.2 1015.2 0.0 NNE 0.0 ENE 0.0 0.0
02:05 2.7 1.1 94.5 1015.1 0.0 NNE 0.0 ENE 0.0 0.0
02:10 2.8 1.4 94.6 1015.0 0.0 NNE 0.0 ENE 0.0 0.0
02:15 2.8 1.4 94.4 1015.0 0.2 SW 3.4 SW 0.0 0.0
02:20 2.8 1.3 94.3 1015.0 0.1 ENE 3.4 ESE 0.0 0.0
02:25 2.7 1.1 94.1 1015.0 0.0 NNE 3.4 NNE 0.0 0.0
02:30 2.6 0.9 94.2 1014.9 0.0 NNE 0.0 NNE 0.0 0.0
02:35 2.4 0.7 94.2 1014.9 0.0 NNE 0.0 NNE 0.0 0.0
02:40 2.4 0.5 94.3 1014.9 0.0 NNE 0.0 NNE 0.0 0.0
02:45 2.3 0.4 94.5 1014.9 0.0 NNE 0.0 NNE 0.0 0.0
02:50 2.2 0.3 94.5 1014.9 0.0 NNE 0.0 NNE 0.0 0.0
02:55 2.1 0.2 94.7 1014.9 0.0 NNE 0.0 NNE 0.0 0.0
03:00 2.1 0.1 94.7 1014.9 0.0 NNE 0.0 NNE 0.0 0.0
03:05 2.0 0.0 94.8 1015.0 0.0 NNE 0.0 NNE 0.0 0.0
03:10 1.9 0.1 94.9 1014.9 0.0 NNE 0.0 NNE 0.0 0.0
03:15 1.8 0.0 94.9 1014.9 0.0 NNE 0.0 NNE 0.0 0.0
03:20 1.8 0.0 95.1 1015.0 0.0 NNE 0.0 NNE 0.0 0.0
03:25 1.8 0.1 95.2 1014.9 0.0 NNE 0.0 NNE 0.0 0.0
03:30 1.8 0.1 95.3 1014.9 0.0 NNE 0.0 NNE 0.0 0.0
03:35 1.8 0.1 95.2 1014.9 0.0 NNE 0.0 NNE 0.0 0.0
03:40 1.8 0.1 95.4 1014.9 0.0 NNE 0.0 NNE 0.0 0.0
03:45 1.9 0.3 95.6 1014.8 0.1 NNE 3.4 NNE 0.0 0.0
03:50 1.9 0.5 95.6 1014.9 0.3 WSW 3.4 NNE 0.0 0.0
03:55 2.0 0.8 95.6 1014.9 0.0 NNE 0.0 SW 0.0 0.0
04:00 2.1 1.0 95.7 1014.9 0.0 NNE 0.0 SW 0.0 0.0
04:05 2.2 1.2 95.7 1014.9 0.0 NNE 0.0 SW 0.0 0.0
04:10 2.4 1.5 95.7 1014.9 0.0 NNE 0.0 SW 0.0 0.0
04:15 2.5 1.7 95.6 1014.8 0.0 NNE 0.0 SW 0.0 0.0
04:20 2.6 1.9 95.6 1014.9 0.1 S 3.4 S 0.0 0.0
04:25 2.7 2.0 95.3 1014.8 0.5 SE 3.4 SSE 0.0 0.0
04:30 2.8 2.1 95.2 1014.8 0.0 NNE 0.0 ESE 0.0 0.0
04:35 2.9 2.2 95.0 1014.8 0.0 NNE 0.0 ESE 0.0 0.0
04:40 2.9 2.3 94.9 1014.8 0.0 ESE 3.4 ESE 0.0 0.0
04:45 3.0 2.3 94.8 1014.7 0.0 NNE 0.0 ESE 0.0 0.0
04:50 3.1 2.4 94.6 1014.6 0.0 NNE 0.0 ESE 0.0 0.0
04:55 3.1 2.4 94.5 1014.6 0.1 ESE 3.4 ESE 0.0 0.0
05:00 3.1 2.3 94.4 1014.6 0.0 NNE 0.0 ESE 0.0 0.0
05:05 3.1 2.0 94.2 1014.6 0.0 NNE 0.0 ESE 0.0 0.0
05:10 3.0 1.7 94.0 1014.6 0.0 NNE 0.0 ESE 0.0 0.0
05:15 2.9 1.6 94.1 1014.6 0.0 NNE 0.0 ESE 0.0 0.0
05:20 2.9 1.5 94.4 1014.6 0.0 NNE 0.0 ESE 0.0 0.0
05:25 2.9 1.5 94.5 1014.6 0.0 NNE 0.0 ESE 0.0 0.0
05:30 2.9 1.6 94.6 1014.6 0.0 NNE 0.0 ESE 0.0 0.0
05:35 3.0 1.8 94.7 1014.7 0.7 SE 3.4 SE 0.0 0.0
Máxima 4.9 3.9 95.7 1015.4 0.8 NNW 6.1 WNW 0.0 0.0
Mínima 1.7 0.0 89.9 1014.6
Total 0.0